Midnight Dream — 3EKF5 — position and weather

sailwx.info

Track history (hours):
 
Tides and Currents Weather Stations Pressure Air Temp Water Temp Dewpoint Dewpoint Depression Visibility Wind Speed Wind Dir Waves Ship Positions

Midnight Dream

Last reported at 2016-Aug-25 13:15 UTC. Time now 2016-Aug-26 13:42 UTC.
Position N 18°25' W 064°36'.

Length 90 m; draft 4.5 m.

Type: Cargo ship. MMSI: 372708000.

Date/timePositionNaut miles runAvg speedWind from/ knotsBaromVisibWave heightAir tempDewpointWater temp
2016-Aug-25 13:15N 18°25' W 064°36'1 1.4
2016-Aug-25 12:31N 18°24' W 064°35'0 0.0
2016-Aug-25 11:31N 18°24' W 064°35'0 0.0
2016-Aug-25 10:31N 18°24' W 064°35'0 0.0
2016-Aug-25 09:31N 18°24' W 064°35'0 0.0
2016-Aug-25 08:22N 18°24' W 064°35'0 0.0
2016-Aug-25 07:13N 18°24' W 064°35'0 0.0
2016-Aug-25 06:31N 18°24' W 064°35'0 0.0
2016-Aug-25 04:25N 18°24' W 064°35'0 0.0
2016-Aug-25 03:25N 18°24' W 064°35'0 0.0
2016-Aug-25 02:28N 18°24' W 064°35'0 0.0
2016-Aug-25 01:28N 18°24' W 064°35'0 0.0
2016-Aug-25 00:28N 18°24' W 064°35'0 0.0
2016-Aug-24 23:28N 18°24' W 064°35'0 0.0
2016-Aug-24 22:28N 18°24' W 064°35'0 0.0
2016-Aug-24 21:28N 18°24' W 064°35'0 0.0
2016-Aug-24 20:28N 18°24' W 064°35'0 0.0
2016-Aug-24 19:28N 18°24' W 064°35'4 0.6
2016-Aug-24 13:33N 18°25' W 064°32'7410.3
2016-Aug-24 06:23N 17°52' W 063°22'49 9.9
2016-Aug-24 01:26N 17°29' W 062°36'9 9.9
2016-Aug-24 00:34N 17°25' W 062°28'10 9.9
2016-Aug-23 23:34N 17°21' W 062°19'10 9.9
2016-Aug-23 22:34N 17°17' W 062°10'10 9.6
2016-Aug-23 21:34N 17°12' W 062°01'10 9.5
2016-Aug-23 20:34N 17°08' W 061°52'1 0.7
2016-Aug-23 19:33N 17°07' W 061°51'0 0.0
2016-Aug-23 18:33N 17°07' W 061°51'0 0.0
2016-Aug-23 17:33N 17°07' W 061°51'0 0.0
2016-Aug-23 16:33N 17°07' W 061°51'0 0.0
2016-Aug-23 15:33N 17°07' W 061°51'0 0.0
2016-Aug-23 14:30N 17°07' W 061°51'0 0.0
2016-Aug-23 13:33N 17°07' W 061°51'3 2.7
2016-Aug-23 12:32N 17°09' W 061°54'0 0.0
2016-Aug-23 11:32N 17°09' W 061°54'0 0.0
2016-Aug-23 10:32N 17°09' W 061°54'0 0.0
2016-Aug-23 09:32N 17°09' W 061°54'6 6.5
2016-Aug-23 08:33N 17°09' W 062°00'8 7.6
2016-Aug-23 07:33N 17°08' W 062°08'67 6.7
2016-Aug-22 21:33N 17°48' W 063°04'1212.2
2016-Aug-22 20:32N 17°59' W 063°09'6 6.3
2016-Aug-22 19:31N 18°05' W 063°05'0 0.1
2016-Aug-22 18:31N 18°05' W 063°05'0 0.1
2016-Aug-22 17:29N 18°05' W 063°05'9 9.4
2016-Aug-22 16:31N 18°06' W 063°15'1111.6
2016-Aug-22 15:33N 18°08' W 063°26'6511.9
2016-Aug-22 10:03N 18°15' W 064°35'611.9
2016-Aug-22 09:33N 18°16' W 064°41'1211.6
2016-Aug-22 08:33N 18°17' W 064°53'0 0.0
2016-Aug-21 09:33N 18°17' W 064°53'1010.0
2016-Aug-21 08:31N 18°17' W 064°42'9 9.6
2016-Aug-21 07:33N 18°25' W 064°36'1 0.0
2016-Aug-19 22:25N 18°25' W 064°36'0 0.1
2016-Aug-19 21:31N 18°24' W 064°36'0 0.0
2016-Aug-19 19:19N 18°25' W 064°36'0 0.0
2016-Aug-19 14:31N 18°25' W 064°36'0 0.0
2016-Aug-19 13:31N 18°25' W 064°36'0 0.0
2016-Aug-19 12:04N 18°25' W 064°36'0 0.0
2016-Aug-19 11:28N 18°25' W 064°36'0 0.0
2016-Aug-19 10:28N 18°24' W 064°36'0 0.0
2016-Aug-19 09:21N 18°25' W 064°36'0 0.0
2016-Aug-19 08:21N 18°24' W 064°36'0 0.0
2016-Aug-19 07:27N 18°24' W 064°36'0 0.0
2016-Aug-19 05:27N 18°25' W 064°36'0 0.0
2016-Aug-19 04:33N 18°24' W 064°36'0 0.0
2016-Aug-19 03:30N 18°25' W 064°36'0 0.0
2016-Aug-19 02:30N 18°25' W 064°36'0 0.0
2016-Aug-19 01:24N 18°25' W 064°36'0 0.0
2016-Aug-19 00:30N 18°25' W 064°36'0 0.0
2016-Aug-18 23:30N 18°25' W 064°36'0 0.0
2016-Aug-18 22:06N 18°25' W 064°36'0 0.0
2016-Aug-18 21:24N 18°25' W 064°36'0 0.0
2016-Aug-18 20:33N 18°25' W 064°36'0 0.0
2016-Aug-18 11:18N 18°25' W 064°36'0 0.0
2016-Aug-18 10:24N 18°25' W 064°36'0 0.0
2016-Aug-18 09:24N 18°25' W 064°36'0 0.0
2016-Aug-18 08:30N 18°25' W 064°36'0 0.0
2016-Aug-18 07:24N 18°25' W 064°36'0 0.0
2016-Aug-18 06:30N 18°24' W 064°36'0 0.0
2016-Aug-18 05:30N 18°24' W 064°36'0 0.0
2016-Aug-18 04:24N 18°25' W 064°36'0 0.0
2016-Aug-18 03:15N 18°25' W 064°36'0 0.0
2016-Aug-18 02:21N 18°25' W 064°36'0 0.0
2016-Aug-18 01:24N 18°25' W 064°36'0 0.0
2016-Aug-18 00:29N 18°24' W 064°36'0 0.0
2016-Aug-17 23:23N 18°25' W 064°36'0 0.0
2016-Aug-17 19:23N 18°25' W 064°36'0 0.0
2016-Aug-17 16:23N 18°25' W 064°36'0 0.0
2016-Aug-17 15:17N 18°25' W 064°36'0 0.0
2016-Aug-17 13:23N 18°25' W 064°36'9010.0
2016-Aug-17 04:27N 17°44' W 063°12'4010.0
2016-Aug-17 00:30N 17°27' W 062°34'1010.3
2016-Aug-16 23:33N 17°23' W 062°25'1010.4
2016-Aug-16 22:33N 17°18' W 062°15'1010.4
2016-Aug-16 21:33N 17°14' W 062°05'1010.3
2016-Aug-16 20:33N 17°09' W 061°55'4 4.2
2016-Aug-16 19:31N 17°07' W 061°51'0 0.0
2016-Aug-16 18:31N 17°07' W 061°51'0 0.0
2016-Aug-16 17:31N 17°07' W 061°51'0 0.0
2016-Aug-16 16:31N 17°07' W 061°51'0 0.0
2016-Aug-16 15:31N 17°07' W 061°51'6 6.7
2016-Aug-16 14:33N 17°09' W 061°58'1110.5
2016-Aug-16 13:33N 17°08' W 062°09'  
Track history (hours):
 
Tides and Currents Weather Stations Pressure Air Temp Water Temp Dewpoint Dewpoint Depression Visibility Wind Speed Wind Dir Waves Ship Positions

Midnight Dream

Last reported at 2016-Aug-25 13:15 UTC. Time now 2016-Aug-26 13:42 UTC.
Position N 18°25' W 064°36'.

Length 90 m; draft 4.5 m.

Type: Cargo ship. MMSI: 372708000.

Date/timePositionNaut miles runAvg speedWind from/ knotsBaromVisibWave heightAir tempDewpointWater temp
2016-Aug-25 13:15N 18°25' W 064°36'1 1.4
2016-Aug-25 12:31N 18°24' W 064°35'0 0.0
2016-Aug-25 11:31N 18°24' W 064°35'0 0.0
2016-Aug-25 10:31N 18°24' W 064°35'0 0.0
2016-Aug-25 09:31N 18°24' W 064°35'0 0.0
2016-Aug-25 08:22N 18°24' W 064°35'0 0.0
2016-Aug-25 07:13N 18°24' W 064°35'0 0.0
2016-Aug-25 06:31N 18°24' W 064°35'0 0.0
2016-Aug-25 04:25N 18°24' W 064°35'0 0.0
2016-Aug-25 03:25N 18°24' W 064°35'0 0.0
2016-Aug-25 02:28N 18°24' W 064°35'0 0.0
2016-Aug-25 01:28N 18°24' W 064°35'0 0.0
2016-Aug-25 00:28N 18°24' W 064°35'0 0.0
2016-Aug-24 23:28N 18°24' W 064°35'0 0.0
2016-Aug-24 22:28N 18°24' W 064°35'0 0.0
2016-Aug-24 21:28N 18°24' W 064°35'0 0.0
2016-Aug-24 20:28N 18°24' W 064°35'0 0.0
2016-Aug-24 19:28N 18°24' W 064°35'4 0.6
2016-Aug-24 13:33N 18°25' W 064°32'7410.3
2016-Aug-24 06:23N 17°52' W 063°22'49 9.9
2016-Aug-24 01:26N 17°29' W 062°36'9 9.9
2016-Aug-24 00:34N 17°25' W 062°28'10 9.9
2016-Aug-23 23:34N 17°21' W 062°19'10 9.9
2016-Aug-23 22:34N 17°17' W 062°10'10 9.6
2016-Aug-23 21:34N 17°12' W 062°01'10 9.5
2016-Aug-23 20:34N 17°08' W 061°52'1 0.7
2016-Aug-23 19:33N 17°07' W 061°51'0 0.0
2016-Aug-23 18:33N 17°07' W 061°51'0 0.0
2016-Aug-23 17:33N 17°07' W 061°51'0 0.0
2016-Aug-23 16:33N 17°07' W 061°51'0 0.0
2016-Aug-23 15:33N 17°07' W 061°51'0 0.0
2016-Aug-23 14:30N 17°07' W 061°51'0 0.0
2016-Aug-23 13:33N 17°07' W 061°51'3 2.7
2016-Aug-23 12:32N 17°09' W 061°54'0 0.0
2016-Aug-23 11:32N 17°09' W 061°54'0 0.0
2016-Aug-23 10:32N 17°09' W 061°54'0 0.0
2016-Aug-23 09:32N 17°09' W 061°54'6 6.5
2016-Aug-23 08:33N 17°09' W 062°00'8 7.6
2016-Aug-23 07:33N 17°08' W 062°08'67 6.7
2016-Aug-22 21:33N 17°48' W 063°04'1212.2
2016-Aug-22 20:32N 17°59' W 063°09'6 6.3
2016-Aug-22 19:31N 18°05' W 063°05'0 0.1
2016-Aug-22 18:31N 18°05' W 063°05'0 0.1
2016-Aug-22 17:29N 18°05' W 063°05'9 9.4
2016-Aug-22 16:31N 18°06' W 063°15'1111.6
2016-Aug-22 15:33N 18°08' W 063°26'6511.9
2016-Aug-22 10:03N 18°15' W 064°35'611.9
2016-Aug-22 09:33N 18°16' W 064°41'1211.6
2016-Aug-22 08:33N 18°17' W 064°53'0 0.0
2016-Aug-21 09:33N 18°17' W 064°53'1010.0
2016-Aug-21 08:31N 18°17' W 064°42'9 9.6
2016-Aug-21 07:33N 18°25' W 064°36'1 0.0
2016-Aug-19 22:25N 18°25' W 064°36'0 0.1
2016-Aug-19 21:31N 18°24' W 064°36'0 0.0
2016-Aug-19 19:19N 18°25' W 064°36'0 0.0
2016-Aug-19 14:31N 18°25' W 064°36'0 0.0
2016-Aug-19 13:31N 18°25' W 064°36'0 0.0
2016-Aug-19 12:04N 18°25' W 064°36'0 0.0
2016-Aug-19 11:28N 18°25' W 064°36'0 0.0
2016-Aug-19 10:28N 18°24' W 064°36'0 0.0
2016-Aug-19 09:21N 18°25' W 064°36'0 0.0
2016-Aug-19 08:21N 18°24' W 064°36'0 0.0
2016-Aug-19 07:27N 18°24' W 064°36'0 0.0
2016-Aug-19 05:27N 18°25' W 064°36'0 0.0
2016-Aug-19 04:33N 18°24' W 064°36'0 0.0
2016-Aug-19 03:30N 18°25' W 064°36'0 0.0
2016-Aug-19 02:30N 18°25' W 064°36'0 0.0
2016-Aug-19 01:24N 18°25' W 064°36'0 0.0
2016-Aug-19 00:30N 18°25' W 064°36'0 0.0
2016-Aug-18 23:30N 18°25' W 064°36'0 0.0
2016-Aug-18 22:06N 18°25' W 064°36'0 0.0
2016-Aug-18 21:24N 18°25' W 064°36'0 0.0
2016-Aug-18 20:33N 18°25' W 064°36'0 0.0
2016-Aug-18 11:18N 18°25' W 064°36'0 0.0
2016-Aug-18 10:24N 18°25' W 064°36'0 0.0
2016-Aug-18 09:24N 18°25' W 064°36'0 0.0
2016-Aug-18 08:30N 18°25' W 064°36'0 0.0
2016-Aug-18 07:24N 18°25' W 064°36'0 0.0
2016-Aug-18 06:30N 18°24' W 064°36'0 0.0
2016-Aug-18 05:30N 18°24' W 064°36'0 0.0
2016-Aug-18 04:24N 18°25' W 064°36'0 0.0
2016-Aug-18 03:15N 18°25' W 064°36'0 0.0
2016-Aug-18 02:21N 18°25' W 064°36'0 0.0
2016-Aug-18 01:24N 18°25' W 064°36'0 0.0
2016-Aug-18 00:29N 18°24' W 064°36'0 0.0
2016-Aug-17 23:23N 18°25' W 064°36'0 0.0
2016-Aug-17 19:23N 18°25' W 064°36'0 0.0
2016-Aug-17 16:23N 18°25' W 064°36'0 0.0
2016-Aug-17 15:17N 18°25' W 064°36'0 0.0
2016-Aug-17 13:23N 18°25' W 064°36'9010.0
2016-Aug-17 04:27N 17°44' W 063°12'4010.0
2016-Aug-17 00:30N 17°27' W 062°34'1010.3
2016-Aug-16 23:33N 17°23' W 062°25'1010.4
2016-Aug-16 22:33N 17°18' W 062°15'1010.4
2016-Aug-16 21:33N 17°14' W 062°05'1010.3
2016-Aug-16 20:33N 17°09' W 061°55'4 4.2
2016-Aug-16 19:31N 17°07' W 061°51'0 0.0
2016-Aug-16 18:31N 17°07' W 061°51'0 0.0
2016-Aug-16 17:31N 17°07' W 061°51'0 0.0
2016-Aug-16 16:31N 17°07' W 061°51'0 0.0
2016-Aug-16 15:31N 17°07' W 061°51'6 6.7
2016-Aug-16 14:33N 17°09' W 061°58'1110.5
2016-Aug-16 13:33N 17°08' W 062°09'  

Dump ship's entire track history